^^
Station Historical Data
Daily Summary for January 16, 2018 Units:  Both    English   Metric
« Previous Day
Next Day »
Daily Weekly Monthly Yearly Custom
  High: Low: Average:
Temperature: TemperatureF °F /  -17.8 °C 71.4 °F /  21.9 °C 79.2 °F /  26.2 °C
Dew Point: DewpointF °F /  -17.8 °C 39.7 °F /  4.3 °C 45.3 °F /  7.4 °C
Humidity: Humidity% 24% 30%
Wind Speed: WindSpeedMPHmph /  0km/h - -35.9mph /  -57.8km/h
Wind Gust: WindSpeedGustMPHmph /  0km/h - -
Wind- -
Pressure: PressureIn in /  0 hPa 29.53 in /  999.9 hPa -
Precipitation: 0.00 in /  0 mm    
Historical Graphs
 
 
Tabular Data for January 16, 2018
Time Temperature Dew Point Pressure Wind Wind Speed Wind Gust Humidity Rainfall Rate (Hourly) solar Conditions
TemperatureF °F /  -17.8 °C DewpointF °F /  -17.8 °C PressureInin /  0hPa Calm     Humidity% HourlyPrecipInin /  0mm SoftwareType W/m2 Conditions
08:47 74.8 °F /  23.8 °C 42.3 °F /  5.7 °C 29.65in /  1003.9hPa North 15.0mph /  24.1km/h 15.0mph /  24.1km/h 31% 0.00in /  0mm meteobridge W/m2
08:53 75.2 °F /  24 °C 42.4 °F /  5.8 °C 29.65in /  1003.9hPa NNE 11.0mph /  17.7km/h 15.0mph /  24.1km/h 31% 0.00in /  0mm meteobridge W/m2
08:59 75.4 °F /  24.1 °C 42.6 °F /  5.9 °C 29.65in /  1003.9hPa North 14.1mph /  22.7km/h 18.0mph /  29km/h 31% 0.00in /  0mm meteobridge W/m2
09:06 75.9 °F /  24.4 °C 40.5 °F /  4.7 °C 29.65in /  1003.9hPa NE 13.0mph /  20.9km/h 18.0mph /  29km/h 28% 0.00in /  0mm meteobridge W/m2
09:12 76.1 °F /  24.5 °C 40.6 °F /  4.8 °C 29.66in /  1004.3hPa NNW 14.1mph /  22.7km/h 19.0mph /  30.6km/h 28% 0.00in /  0mm meteobridge W/m2
09:18 76.3 °F /  24.6 °C 39.9 °F /  4.4 °C 29.66in /  1004.3hPa North 4.9mph /  7.9km/h 20.0mph /  32.2km/h 27% 0.00in /  0mm meteobridge W/m2
09:30 77.0 °F /  25 °C 40.5 °F /  4.7 °C 29.66in /  1004.3hPa North 14.1mph /  22.7km/h 20.0mph /  32.2km/h 27% 0.00in /  0mm meteobridge W/m2
09:36 77.2 °F /  25.1 °C 40.6 °F /  4.8 °C 29.66in /  1004.3hPa North 8.1mph /  13km/h 18.0mph /  29km/h 27% 0.00in /  0mm meteobridge W/m2
09:42 77.7 °F /  25.4 °C 41.0 °F /  5 °C 29.66in /  1004.3hPa NNE 8.9mph /  14.3km/h 18.0mph /  29km/h 27% 0.00in /  0mm meteobridge W/m2
09:48 78.6 °F /  25.9 °C 40.8 °F /  4.9 °C 29.65in /  1003.9hPa NNE 8.9mph /  14.3km/h 15.0mph /  24.1km/h 26% 0.00in /  0mm meteobridge W/m2
09:55 79.2 °F /  26.2 °C 40.3 °F /  4.6 °C 29.65in /  1003.9hPa North 15.0mph /  24.1km/h 15.0mph /  24.1km/h 25% 0.00in /  0mm meteobridge W/m2
10:01 79.3 °F /  26.3 °C 40.5 °F /  4.7 °C 29.65in /  1003.9hPa North 16.1mph /  25.9km/h 18.0mph /  29km/h 25% 0.00in /  0mm meteobridge W/m2
10:07 79.2 °F /  26.2 °C 40.3 °F /  4.6 °C 29.65in /  1003.9hPa NNE 11.0mph /  17.7km/h 20.0mph /  32.2km/h 25% 0.00in /  0mm meteobridge W/m2
10:13 79.0 °F /  26.1 °C 40.1 °F /  4.5 °C 29.66in /  1004.3hPa North 8.9mph /  14.3km/h 12.0mph /  19.3km/h 25% 0.00in /  0mm meteobridge W/m2
10:19 78.4 °F /  25.8 °C 39.7 °F /  4.3 °C 29.65in /  1003.9hPa NNE 4.0mph /  6.4km/h 10.0mph /  16.1km/h 25% 0.00in /  0mm meteobridge W/m2
10:25 79.7 °F /  26.5 °C 39.7 °F /  4.3 °C 29.65in /  1003.9hPa North 10.1mph /  16.3km/h 14.0mph /  22.5km/h 24% 0.00in /  0mm meteobridge W/m2
10:31 80.4 °F /  26.9 °C 40.3 °F /  4.6 °C 29.65in /  1003.9hPa NNE 6.0mph /  9.7km/h 12.0mph /  19.3km/h 24% 0.00in /  0mm meteobridge W/m2
10:37 81.1 °F /  27.3 °C 41.0 °F /  5 °C 29.65in /  1003.9hPa North 4.9mph /  7.9km/h 12.0mph /  19.3km/h 24% 0.00in /  0mm meteobridge W/m2
10:49 81.1 °F /  27.3 °C 41.9 °F /  5.5 °C 29.65in /  1003.9hPa NNW 10.1mph /  16.3km/h 13.0mph /  20.9km/h 25% 0.00in /  0mm meteobridge W/m2
10:55 81.1 °F /  27.3 °C 41.0 °F /  5 °C 29.65in /  1003.9hPa North 4.0mph /  6.4km/h 10.0mph /  16.1km/h 24% 0.00in /  0mm meteobridge W/m2
11:02 82.8 °F /  28.2 °C 42.3 °F /  5.7 °C 29.65in /  1003.9hPa NE 12.1mph /  19.5km/h 19.0mph /  30.6km/h 24% 0.00in /  0mm meteobridge W/m2
11:08 82.6 °F /  28.1 °C 43.2 °F /  6.2 °C 29.65in /  1003.9hPa North 11.0mph /  17.7km/h 16.0mph /  25.7km/h 25% 0.00in /  0mm meteobridge W/m2
11:14 82.2 °F /  27.9 °C 43.9 °F /  6.6 °C 29.65in /  1003.9hPa North 8.9mph /  14.3km/h 21.0mph /  33.8km/h 26% 0.00in /  0mm meteobridge W/m2
11:20 82.2 °F /  27.9 °C 43.9 °F /  6.6 °C 29.64in /  1003.6hPa North 6.9mph /  11.1km/h 16.0mph /  25.7km/h 26% 0.00in /  0mm meteobridge W/m2
11:26 82.2 °F /  27.9 °C 45.0 °F /  7.2 °C 29.64in /  1003.6hPa North 11.0mph /  17.7km/h 17.0mph /  27.4km/h 27% 0.00in /  0mm meteobridge W/m2
11:32 82.4 °F /  28 °C 45.1 °F /  7.3 °C 29.63in /  1003.3hPa North 14.1mph /  22.7km/h 18.0mph /  29km/h 27% 0.00in /  0mm meteobridge W/m2
11:49 84.2 °F /  29 °C 45.7 °F /  7.6 °C 29.62in /  1002.9hPa NE 6.9mph /  11.1km/h 12.0mph /  19.3km/h 26% 0.00in /  0mm meteobridge W/m2
11:55 84.6 °F /  29.2 °C 45.9 °F /  7.7 °C 29.62in /  1002.9hPa NE 13.0mph /  20.9km/h 14.0mph /  22.5km/h 26% 0.00in /  0mm meteobridge W/m2
12:21 83.7 °F /  28.7 °C 46.2 °F /  7.9 °C 29.62in /  1002.9hPa NE 4.9mph /  7.9km/h 11.0mph /  17.7km/h 27% 0.00in /  0mm meteobridge W/m2
12:27 84.2 °F /  29 °C 45.7 °F /  7.6 °C 29.61in /  1002.6hPa North 0.9mph /  1.4km/h 6.0mph /  9.7km/h 26% 0.00in /  0mm meteobridge W/m2
12:33 85.8 °F /  29.9 °C 46.9 °F /  8.3 °C 29.61in /  1002.6hPa East 4.9mph /  7.9km/h 14.0mph /  22.5km/h 26% 0.00in /  0mm meteobridge W/m2
12:39 87.4 °F /  30.8 °C 47.3 °F /  8.5 °C 29.61in /  1002.6hPa North 13.0mph /  20.9km/h 16.0mph /  25.7km/h 25% 0.00in /  0mm meteobridge W/m2
12:45 84.9 °F /  29.4 °C 46.2 °F /  7.9 °C 29.60in /  1002.3hPa NE 6.9mph /  11.1km/h 16.0mph /  25.7km/h 26% 0.00in /  0mm meteobridge W/m2
12:52 84.7 °F /  29.3 °C 46.0 °F /  7.8 °C 29.61in /  1002.6hPa NE 4.9mph /  7.9km/h 13.0mph /  20.9km/h 26% 0.00in /  0mm meteobridge W/m2
13:02 85.5 °F /  29.7 °C 46.6 °F /  8.1 °C 29.60in /  1002.3hPa East 4.0mph /  6.4km/h 8.0mph /  12.9km/h 26% 0.00in /  0mm meteobridge W/m2
13:08 86.4 °F /  30.2 °C 46.4 °F /  8 °C 29.60in /  1002.3hPa NE 4.9mph /  7.9km/h 9.0mph /  14.5km/h 25% 0.00in /  0mm meteobridge W/m2
13:14 86.7 °F /  30.4 °C 46.8 °F /  8.2 °C 29.59in /  1001.9hPa ESE 0.9mph /  1.4km/h 2.0mph /  3.2km/h 25% 0.00in /  0mm meteobridge W/m2
13:24 86.0 °F /  30 °C 46.0 °F /  7.8 °C 29.59in /  1001.9hPa NE 6.0mph /  9.7km/h 11.0mph /  17.7km/h 25% 0.00in /  0mm meteobridge W/m2
13:30 84.7 °F /  29.3 °C 46.0 °F /  7.8 °C 29.59in /  1001.9hPa East 0.9mph /  1.4km/h 4.0mph /  6.4km/h 26% 0.00in /  0mm meteobridge W/m2
13:42 84.4 °F /  29.1 °C 45.7 °F /  7.6 °C 29.58in /  1001.6hPa SE 0.9mph /  1.4km/h 3.0mph /  4.8km/h 26% 0.00in /  0mm meteobridge W/m2
14:07 85.3 °F /  29.6 °C 46.6 °F /  8.1 °C 29.57in /  1001.2hPa NNE 2.9mph /  4.7km/h 6.0mph /  9.7km/h 26% 0.00in /  0mm meteobridge W/m2
14:13 84.7 °F /  29.3 °C 46.0 °F /  7.8 °C 29.57in /  1001.2hPa NNE 2.0mph /  3.2km/h 7.0mph /  11.3km/h 26% 0.00in /  0mm meteobridge W/m2
14:19 84.6 °F /  29.2 °C 45.9 °F /  7.7 °C 29.57in /  1001.2hPa NNE 2.9mph /  4.7km/h 4.0mph /  6.4km/h 26% 0.00in /  0mm meteobridge W/m2
14:25 84.6 °F /  29.2 °C 46.9 °F /  8.3 °C 29.56in /  1000.9hPa North 8.9mph /  14.3km/h 12.0mph /  19.3km/h 27% 0.00in /  0mm meteobridge W/m2
14:31 84.4 °F /  29.1 °C 46.8 °F /  8.2 °C 29.56in /  1000.9hPa Calm   2.0mph /  3.2km/h 27% 0.00in /  0mm meteobridge W/m2
14:37 84.4 °F /  29.1 °C 46.8 °F /  8.2 °C 29.56in /  1000.9hPa ESE 4.9mph /  7.9km/h 10.0mph /  16.1km/h 27% 0.00in /  0mm meteobridge W/m2
14:43 84.6 °F /  29.2 °C 46.9 °F /  8.3 °C 29.56in /  1000.9hPa SE 0.9mph /  1.4km/h 4.0mph /  6.4km/h 27% 0.00in /  0mm meteobridge W/m2
14:49 84.7 °F /  29.3 °C 47.1 °F /  8.4 °C 29.56in /  1000.9hPa Calm   3.0mph /  4.8km/h 27% 0.00in /  0mm meteobridge W/m2
14:56 84.6 °F /  29.2 °C 51.4 °F /  10.8 °C 29.55in /  1000.6hPa SSE 2.9mph /  4.7km/h 6.0mph /  9.7km/h 32% 0.00in /  0mm meteobridge W/m2
15:02 82.8 °F /  28.2 °C 51.4 °F /  10.8 °C 29.55in /  1000.6hPa SSE 2.0mph /  3.2km/h 4.0mph /  6.4km/h 34% 0.00in /  0mm meteobridge W/m2
15:12 82.0 °F /  27.8 °C 49.3 °F /  9.6 °C 29.54in /  1000.2hPa Calm   6.0mph /  9.7km/h 32% 0.00in /  0mm meteobridge W/m2
15:20 82.2 °F /  27.9 °C 47.7 °F /  8.7 °C 29.54in /  1000.2hPa South 12.1mph /  19.5km/h 12.1mph /  19.5km/h 30% 0.00in /  0mm meteobridge W/m2
15:26 82.4 °F /  28 °C 46.9 °F /  8.3 °C 29.54in /  1000.2hPa South 2.9mph /  4.7km/h 7.0mph /  11.3km/h 29% 0.00in /  0mm meteobridge W/m2
15:34 82.6 °F /  28.1 °C 47.1 °F /  8.4 °C 29.54in /  1000.2hPa South 4.9mph /  7.9km/h 15.0mph /  24.1km/h 29% 0.00in /  0mm meteobridge W/m2
15:40 81.9 °F /  27.7 °C 46.4 °F /  8 °C 29.54in /  1000.2hPa South 4.9mph /  7.9km/h 9.0mph /  14.5km/h 29% 0.00in /  0mm meteobridge W/m2
15:47 81.9 °F /  27.7 °C 46.4 °F /  8 °C 29.55in /  1000.6hPa SE 6.9mph /  11.1km/h 7.0mph /  11.3km/h 29% 0.00in /  0mm meteobridge W/m2
15:53 81.0 °F /  27.2 °C 49.1 °F /  9.5 °C 29.55in /  1000.6hPa NNW 8.9mph /  14.3km/h 15.0mph /  24.1km/h 33% 0.00in /  0mm meteobridge W/m2
16:03 77.2 °F /  25.1 °C 51.6 °F /  10.9 °C 29.55in /  1000.6hPa North 4.0mph /  6.4km/h 23.0mph /  37km/h 41% 0.00in /  0mm meteobridge W/m2
16:09 74.3 °F /  23.5 °C 54.0 °F /  12.2 °C 29.54in /  1000.2hPa SSE 2.0mph /  3.2km/h 7.0mph /  11.3km/h 49% 0.00in /  0mm meteobridge W/m2
16:17 71.4 °F /  21.9 °C 52.9 °F /  11.6 °C 29.53in /  999.9hPa NE 8.9mph /  14.3km/h 10.0mph /  16.1km/h 52% 0.00in /  0mm meteobridge W/m2
16:23 72.0 °F /  22.2 °C 53.4 °F /  11.9 °C 29.54in /  1000.2hPa ENE 2.9mph /  4.7km/h 7.0mph /  11.3km/h 52% 0.00in /  0mm meteobridge W/m2
16:30 72.9 °F /  22.7 °C 53.1 °F /  11.7 °C 29.54in /  1000.2hPa Calm   2.0mph /  3.2km/h 50% 0.00in /  0mm meteobridge W/m2
16:36 73.0 °F /  22.8 °C 52.7 °F /  11.5 °C 29.55in /  1000.6hPa South 4.9mph /  7.9km/h 7.0mph /  11.3km/h 49% 0.00in /  0mm meteobridge W/m2
16:42 73.4 °F /  23 °C 52.5 °F /  11.4 °C 29.55in /  1000.6hPa SSW 4.9mph /  7.9km/h 5.0mph /  8km/h 48% 0.00in /  0mm meteobridge W/m2
16:52 73.9 °F /  23.3 °C 51.3 °F /  10.7 °C 29.55in /  1000.6hPa South 6.0mph /  9.7km/h 6.0mph /  9.7km/h 45% 0.00in /  0mm meteobridge W/m2
16:58 73.9 °F /  23.3 °C 51.3 °F /  10.7 °C 29.55in /  1000.6hPa South 6.0mph /  9.7km/h -999.0mph /  -1607.7km/h 45% 0.00in /  0mm meteobridge W/m2
17:05 73.9 °F /  23.3 °C 51.3 °F /  10.7 °C 29.56in /  1000.9hPa South 6.0mph /  9.7km/h -999.0mph /  -1607.7km/h 45% 0.00in /  0mm meteobridge W/m2
17:13 73.9 °F /  23.3 °C 51.3 °F /  10.7 °C 29.56in /  1000.9hPa North -999.9mph /  -1609.1km/h -999.0mph /  -1607.7km/h 45% 0.00in /  0mm meteobridge W/m2
17:19 73.9 °F /  23.3 °C 51.3 °F /  10.7 °C 29.55in /  1000.6hPa North -999.9mph /  -1609.1km/h -999.0mph /  -1607.7km/h 45% 0.00in /  0mm meteobridge W/m2
17:26 73.9 °F /  23.3 °C 51.3 °F /  10.7 °C 29.54in /  1000.2hPa North -999.9mph /  -1609.1km/h -999.0mph /  -1607.7km/h 45% 0.00in /  0mm meteobridge W/m2
Regenstein, Windhoek, Namibia
Compliments of Weather Underground - 2.5 mb